Time;durP1;ratioP1;P1;durP2;ratioP2;P2;SDS_P1;SDS_P2;PMS_P1;PMS_P2;Temp;Humidity;BMP_temperature;BMP_pressure;BME280_temperature;BME280_humidity;BME280_pressure;Samples;Min_cycle;Max_cycle;Signal;HPM_P1;HPM_P2
2021/12/19 00:00:32;;;;;;;;;;;7.50;98.00;;;;;;5116167;28;19916;-80
2021/12/19 00:03:18;;;;;;;;;;;7.50;97.90;;;;;;5099128;28;20000;-78
2021/12/19 00:08:35;;;;;;;;;;;7.50;97.80;;;;;;5116225;28;20014;-80
2021/12/19 00:11:01;;;;;;;;;;;7.50;97.90;;;;;;5115995;28;19915;-80
2021/12/19 00:13:27;;;;;;;;;;;7.50;97.90;;;;;;5099509;28;19916;-81
2021/12/19 00:15:53;;;;;;;;;;;7.50;97.90;;;;;;5099176;28;20279;-80
2021/12/19 00:18:19;;;;;;;;;;;7.50;98.00;;;;;;5098669;28;19923;-79
2021/12/19 00:20:45;;;;;;;;;;;7.40;97.90;;;;;;5082143;28;19915;-80
2021/12/19 00:23:11;;;;;;;;;;;7.40;98.10;;;;;;5099016;28;19967;-79
2021/12/19 00:25:37;;;;;;;;;;;7.40;98.00;;;;;;5115546;28;20010;-79
2021/12/19 00:28:02;;;;;;;;;;;7.40;98.00;;;;;;5080894;28;19977;-79
2021/12/19 00:30:28;;;;;;;;;;;7.30;98.00;;;;;;5115937;28;20386;-79
2021/12/19 00:32:53;;;;;;;;;;;7.40;98.10;;;;;;5115556;28;19951;-79
2021/12/19 00:35:19;;;;;;;;;;;7.40;98.10;;;;;;5098496;28;19923;-79
2021/12/19 00:37:45;;;;;;;;;;;7.50;98.00;;;;;;5115704;28;19919;-79
2021/12/19 00:40:11;;;;;;;;;;;7.40;98.00;;;;;;5115718;28;19922;-80
2021/12/19 00:42:37;;;;;;;;;;;7.40;98.10;;;;;;5098170;28;20018;-79
2021/12/19 00:45:15;;;;;;;;;;;7.30;98.10;;;;;;5115459;28;19920;-81
2021/12/19 00:47:44;;;;;;;;;;;7.30;98.20;;;;;;5115185;28;20008;-79
2021/12/19 00:50:10;;;;;;;;;;;7.30;98.20;;;;;;5115235;28;19916;-80
2021/12/19 00:52:35;;;;;;;;;;;7.30;98.30;;;;;;5098080;28;20006;-79
2021/12/19 00:55:01;;;;;;;;;;;7.40;98.40;;;;;;5115025;28;19916;-79
2021/12/19 00:57:26;;;;;;;;;;;7.30;98.20;;;;;;5115017;28;19915;-80
2021/12/19 00:59:52;;;;;;;;;;;7.30;98.20;;;;;;5115054;28;20267;-79
2021/12/19 01:02:18;;;;;;;;;;;7.30;98.20;;;;;;5115248;28;19965;-81
2021/12/19 01:04:43;;;;;;;;;;;7.30;98.30;;;;;;5114927;28;19915;-79
2021/12/19 01:07:09;;;;;;;;;;;7.30;98.20;;;;;;5114737;28;19964;-81
2021/12/19 01:09:35;;;;;;;;;;;7.30;98.20;;;;;;5097410;28;19920;-80
2021/12/19 01:12:01;;;;;;;;;;;7.30;98.10;;;;;;5114299;28;19922;-80
2021/12/19 01:14:26;;;;;;;;;;;7.40;98.20;;;;;;5097439;28;19916;-80
2021/12/19 01:16:52;;;;;;;;;;;7.40;98.10;;;;;;5114196;28;19915;-80
2021/12/19 01:19:18;;;;;;;;;;;7.40;98.00;;;;;;5114403;28;20044;-80
2021/12/19 01:21:44;;;;;;;;;;;7.40;98.00;;;;;;5097010;28;19922;-79
2021/12/19 01:24:09;;;;;;;;;;;7.40;98.00;;;;;;5114357;28;20002;-79
2021/12/19 01:26:35;;;;;;;;;;;7.40;97.80;;;;;;5097188;28;20010;-79
2021/12/19 01:29:01;;;;;;;;;;;7.40;97.80;;;;;;5080744;28;19926;-80
2021/12/19 01:31:26;;;;;;;;;;;7.30;97.90;;;;;;5080565;28;19916;-80
2021/12/19 01:33:52;;;;;;;;;;;7.30;97.90;;;;;;5097520;28;20002;-79
2021/12/19 01:36:18;;;;;;;;;;;7.40;98.10;;;;;;5114220;28;20362;-80
2021/12/19 01:38:44;;;;;;;;;;;7.30;98.00;;;;;;5114073;28;20006;-80
2021/12/19 01:41:10;;;;;;;;;;;7.30;98.20;;;;;;5113962;28;20018;-79
2021/12/19 01:43:35;;;;;;;;;;;7.40;98.20;;;;;;5114494;28;19919;-78
2021/12/19 01:46:01;;;;;;;;;;;7.40;98.10;;;;;;5097136;28;19919;-78
2021/12/19 01:48:27;;;;;;;;;;;7.40;98.00;;;;;;5113714;28;19954;-79
2021/12/19 01:50:53;;;;;;;;;;;7.40;97.90;;;;;;5096782;28;19963;-80
2021/12/19 01:53:19;;;;;;;;;;;7.30;97.80;;;;;;5113814;28;19916;-79
2021/12/19 01:55:45;;;;;;;;;;;7.30;97.80;;;;;;5097545;28;19916;-79
2021/12/19 01:58:11;;;;;;;;;;;7.20;97.80;;;;;;5096808;28;20008;-80
2021/12/19 02:00:39;;;;;;;;;;;7.20;97.90;;;;;;5096911;28;19923;-79
2021/12/19 02:03:05;;;;;;;;;;;7.20;98.00;;;;;;5114109;28;19938;-78
2021/12/19 02:05:31;;;;;;;;;;;7.20;98.00;;;;;;5096706;28;19916;-79
2021/12/19 02:07:57;;;;;;;;;;;7.20;98.00;;;;;;5079748;28;19927;-79
2021/12/19 02:10:25;;;;;;;;;;;7.20;98.10;;;;;;5113667;28;19985;-80
2021/12/19 02:12:51;;;;;;;;;;;7.20;98.00;;;;;;5113536;28;19916;-79
2021/12/19 02:15:20;;;;;;;;;;;7.20;97.90;;;;;;5097262;28;20291;-79
2021/12/19 02:17:46;;;;;;;;;;;7.20;97.90;;;;;;5096529;28;19916;-79
2021/12/19 02:20:12;;;;;;;;;;;7.20;97.90;;;;;;5096852;28;20272;-80
2021/12/19 02:22:38;;;;;;;;;;;7.30;97.60;;;;;;5113765;28;20339;-82
2021/12/19 02:25:04;;;;;;;;;;;7.30;97.30;;;;;;5113382;28;19970;-79
2021/12/19 02:27:29;;;;;;;;;;;7.20;97.40;;;;;;5113663;28;19920;-80
2021/12/19 02:29:58;;;;;;;;;;;7.10;97.40;;;;;;5096434;28;19916;-79
2021/12/19 02:32:26;;;;;;;;;;;7.10;97.40;;;;;;5113364;28;19916;-79
2021/12/19 02:34:54;;;;;;;;;;;7.20;97.50;;;;;;5113307;28;19916;-81
2021/12/19 02:48:19;;;;;;;;;;;7.10;97.70;;;;;;5098746;28;19994;-80
2021/12/19 02:50:48;;;;;;;;;;;7.10;97.70;;;;;;5095621;28;19962;-81
2021/12/19 02:53:17;;;;;;;;;;;7.10;97.70;;;;;;5113327;28;19916;-79
2021/12/19 02:55:43;;;;;;;;;;;7.00;97.60;;;;;;5113094;28;19922;-80
2021/12/19 02:58:09;;;;;;;;;;;7.00;97.60;;;;;;5096166;28;19967;-81
2021/12/19 03:00:36;;;;;;;;;;;7.00;97.20;;;;;;5113043;28;19915;-80
2021/12/19 03:03:01;;;;;;;;;;;7.00;97.20;;;;;;5096333;28;20351;-80
2021/12/19 03:05:29;;;;;;;;;;;7.00;97.00;;;;;;5095944;28;19924;-80
2021/12/19 03:07:56;;;;;;;;;;;7.00;97.20;;;;;;5096007;28;19953;-80
2021/12/19 03:18:10;;;;;;;;;;;7.00;97.30;;;;;;5112764;28;20355;-80
2021/12/19 03:20:37;;;;;;;;;;;6.90;97.30;;;;;;5113163;28;19915;-80
2021/12/19 03:23:03;;;;;;;;;;;6.80;97.50;;;;;;5112736;28;20359;-79
2021/12/19 03:25:29;;;;;;;;;;;6.90;97.70;;;;;;5095792;28;19919;-80
2021/12/19 03:27:55;;;;;;;;;;;6.80;97.80;;;;;;5113093;28;19922;-81
2021/12/19 03:30:21;;;;;;;;;;;6.80;97.90;;;;;;5079304;28;20334;-79
2021/12/19 03:32:47;;;;;;;;;;;6.80;97.90;;;;;;5112788;28;20378;-79
2021/12/19 03:35:13;;;;;;;;;;;6.80;98.00;;;;;;5095756;28;19915;-80
2021/12/19 03:37:38;;;;;;;;;;;6.90;98.00;;;;;;5079146;28;19919;-80
2021/12/19 03:40:09;;;;;;;;;;;6.90;97.90;;;;;;5112938;28;19922;-80
2021/12/19 03:42:46;;;;;;;;;;;6.80;97.90;;;;;;5095392;28;19973;-80
2021/12/19 03:45:13;;;;;;;;;;;6.80;97.80;;;;;;5112161;28;19923;-80
2021/12/19 03:47:39;;;;;;;;;;;6.80;97.80;;;;;;5095282;28;19916;-79
2021/12/19 03:50:06;;;;;;;;;;;6.80;97.60;;;;;;5095925;28;20351;-81
2021/12/19 03:52:32;;;;;;;;;;;6.80;97.60;;;;;;5112548;28;20363;-80
2021/12/19 03:54:58;;;;;;;;;;;6.80;97.60;;;;;;5095606;28;19927;-80
2021/12/19 03:57:24;;;;;;;;;;;6.80;97.70;;;;;;5095553;28;19923;-79
2021/12/19 03:59:49;;;;;;;;;;;6.70;97.70;;;;;;5112500;28;19919;-79
2021/12/19 04:02:26;;;;;;;;;;;6.80;97.80;;;;;;5095377;28;19980;-80
2021/12/19 04:04:53;;;;;;;;;;;6.80;97.70;;;;;;5098584;28;19916;-80
2021/12/19 04:07:19;;;;;;;;;;;6.80;97.70;;;;;;5116010;28;19915;-80
2021/12/19 04:09:45;;;;;;;;;;;6.80;97.70;;;;;;5116284;28;19923;-80
2021/12/19 04:12:10;;;;;;;;;;;6.90;97.50;;;;;;5099002;28;19942;-80
2021/12/19 04:14:36;;;;;;;;;;;6.80;97.50;;;;;;5099198;28;19961;-80
2021/12/19 04:17:01;;;;;;;;;;;6.80;97.50;;;;;;5098800;28;20398;-80
2021/12/19 04:19:28;;;;;;;;;;;6.80;97.60;;;;;;5115854;28;19923;-79
2021/12/19 04:21:55;;;;;;;;;;;6.90;97.60;;;;;;5115811;28;19966;-80
2021/12/19 04:24:20;;;;;;;;;;;6.80;97.70;;;;;;5099120;28;19916;-79
2021/12/19 04:26:46;;;;;;;;;;;6.80;97.70;;;;;;5115567;28;20390;-80
2021/12/19 04:29:11;;;;;;;;;;;6.80;97.80;;;;;;5115671;28;19959;-79
2021/12/19 04:31:38;;;;;;;;;;;6.80;97.90;;;;;;5115901;28;19920;-80
2021/12/19 04:34:04;;;;;;;;;;;6.90;97.90;;;;;;5115623;28;19915;-79
2021/12/19 04:36:34;;;;;;;;;;;6.80;97.90;;;;;;5098784;28;19938;-79
2021/12/19 04:39:56;;;;;;;;;;;6.80;97.90;;;;;;5098272;28;19916;-80
2021/12/19 05:00:46;;;;;;;;;;;7.00;97.80;;;;;;5115123;28;20017;-80
2021/12/19 05:03:33;;;;;;;;;;;7.00;97.90;;;;;;5099416;28;19915;-81
2021/12/19 05:16:29;;;;;;;;;;;7.00;97.80;;;;;;5115079;28;20026;-80
2021/12/19 05:19:02;;;;;;;;;;;7.10;97.70;;;;;;5097442;28;19998;-81
2021/12/19 05:21:29;;;;;;;;;;;7.10;97.70;;;;;;5114785;28;20270;-80
2021/12/19 05:26:23;;;;;;;;;;;7.10;97.20;;;;;;5114451;28;19971;-80
2021/12/19 05:28:52;;;;;;;;;;;7.10;97.20;;;;;;5097222;28;19984;-80
2021/12/19 05:31:18;;;;;;;;;;;7.10;97.20;;;;;;5114469;28;19919;-81
2021/12/19 05:33:46;;;;;;;;;;;7.10;97.10;;;;;;5114610;28;19922;-80
2021/12/19 05:46:36;;;;;;;;;;;7.10;96.70;;;;;;5113649;28;19920;-80
2021/12/19 05:49:04;;;;;;;;;;;7.20;96.70;;;;;;5113678;28;20011;-80
2021/12/19 05:51:30;;;;;;;;;;;7.10;96.70;;;;;;5113988;28;19916;-81
2021/12/19 05:53:56;;;;;;;;;;;7.20;96.70;;;;;;5114057;28;19915;-80
2021/12/19 05:56:21;;;;;;;;;;;7.20;96.60;;;;;;5113926;28;20393;-80
2021/12/19 05:58:47;;;;;;;;;;;7.20;96.60;;;;;;5097177;28;19919;-80
2021/12/19 06:01:12;;;;;;;;;;;7.20;96.60;;;;;;5096876;28;20389;-80
2021/12/19 06:03:38;;;;;;;;;;;7.30;96.60;;;;;;5114115;28;19916;-81
2021/12/19 06:06:04;;;;;;;;;;;7.20;96.50;;;;;;5113710;28;19920;-81
2021/12/19 06:08:29;;;;;;;;;;;7.20;96.50;;;;;;5113239;28;19938;-82
2021/12/19 06:10:55;;;;;;;;;;;7.20;96.60;;;;;;5113704;28;19939;-82
2021/12/19 06:13:20;;;;;;;;;;;7.20;96.50;;;;;;5113990;28;19958;-80
2021/12/19 06:15:50;;;;;;;;;;;7.20;96.40;;;;;;5096639;28;20378;-80
2021/12/19 06:18:15;;;;;;;;;;;7.10;96.40;;;;;;5096510;28;19916;-82
2021/12/19 06:20:41;;;;;;;;;;;7.20;96.30;;;;;;5096564;28;19923;-80
2021/12/19 06:23:08;;;;;;;;;;;7.20;96.30;;;;;;5097174;28;19922;-81
2021/12/19 06:25:34;;;;;;;;;;;7.20;96.20;;;;;;5112825;28;19963;-80
2021/12/19 06:27:59;;;;;;;;;;;7.20;96.20;;;;;;5112941;28;19915;-81
2021/12/19 06:30:25;;;;;;;;;;;7.20;96.20;;;;;;5113342;28;19960;-80
2021/12/19 06:32:50;;;;;;;;;;;7.20;96.20;;;;;;5096388;28;19916;-81
2021/12/19 06:35:21;;;;;;;;;;;7.10;96.30;;;;;;5113601;28;19919;-82
2021/12/19 06:37:47;;;;;;;;;;;7.10;96.30;;;;;;5096314;28;19969;-81
2021/12/19 06:40:14;;;;;;;;;;;7.10;96.30;;;;;;5096265;28;20429;-82
2021/12/19 06:42:39;;;;;;;;;;;7.10;96.30;;;;;;5112719;28;19920;-80
2021/12/19 06:45:05;;;;;;;;;;;7.10;96.30;;;;;;5095877;28;20364;-80
2021/12/19 06:47:31;;;;;;;;;;;7.10;96.40;;;;;;5113110;28;19916;-81
2021/12/19 06:49:56;;;;;;;;;;;7.10;96.30;;;;;;5113186;28;19958;-79
2021/12/19 06:52:22;;;;;;;;;;;7.20;96.20;;;;;;5096204;28;19915;-81
2021/12/19 06:54:48;;;;;;;;;;;7.20;96.00;;;;;;5079290;28;19919;-80
2021/12/19 06:57:13;;;;;;;;;;;7.30;96.10;;;;;;5113083;28;19955;-80
2021/12/19 06:59:39;;;;;;;;;;;7.20;96.00;;;;;;5113075;28;19916;-81
2021/12/19 07:02:04;;;;;;;;;;;7.20;96.10;;;;;;5113334;28;19916;-81
2021/12/19 07:04:30;;;;;;;;;;;7.30;96.00;;;;;;5096359;28;19916;-80
2021/12/19 07:06:56;;;;;;;;;;;7.20;95.90;;;;;;5112830;28;20290;-80
2021/12/19 07:09:21;;;;;;;;;;;7.20;96.00;;;;;;5096090;28;19916;-83
2021/12/19 07:11:47;;;;;;;;;;;7.10;96.00;;;;;;5113013;28;20085;-81
2021/12/19 07:14:12;;;;;;;;;;;7.20;96.20;;;;;;5113246;28;19916;-81
2021/12/19 07:16:38;;;;;;;;;;;7.10;96.00;;;;;;5112955;28;20006;-81
2021/12/19 07:19:04;;;;;;;;;;;7.10;96.00;;;;;;5113089;28;19961;-81
2021/12/19 07:21:29;;;;;;;;;;;7.10;96.10;;;;;;5079270;28;20271;-81
2021/12/19 07:23:56;;;;;;;;;;;7.10;96.10;;;;;;5112854;28;20407;-81
2021/12/19 07:26:22;;;;;;;;;;;7.00;96.20;;;;;;5112709;28;19920;-82
2021/12/19 07:28:49;;;;;;;;;;;7.00;96.20;;;;;;5112763;28;19919;-82
2021/12/19 07:31:19;;;;;;;;;;;7.10;96.30;;;;;;5079187;28;19922;-81
2021/12/19 07:33:45;;;;;;;;;;;7.10;96.10;;;;;;5113027;28;20324;-82
2021/12/19 07:36:17;;;;;;;;;;;7.10;96.10;;;;;;5112744;28;19922;-82
2021/12/19 07:38:58;;;;;;;;;;;7.10;96.10;;;;;;5116111;28;20080;-81
2021/12/19 07:41:24;;;;;;;;;;;7.10;96.10;;;;;;5116391;28;19915;-81
2021/12/19 07:43:49;;;;;;;;;;;7.10;96.00;;;;;;5099460;28;19923;-82
2021/12/19 07:46:15;;;;;;;;;;;7.10;96.00;;;;;;5116373;28;19920;-82
2021/12/19 07:48:41;;;;;;;;;;;7.10;96.00;;;;;;5116646;28;20015;-82
2021/12/19 07:51:06;;;;;;;;;;;7.00;96.20;;;;;;5082473;28;19923;-82
2021/12/19 07:53:32;;;;;;;;;;;7.00;96.20;;;;;;5121780;27;20304;-80
2021/12/19 07:55:59;;;;;;;;;;;7.00;96.30;;;;;;5109337;27;19926;-81
2021/12/19 07:58:25;;;;;;;;;;;7.00;96.40;;;;;;5099273;28;20014;-81
2021/12/19 08:00:50;;;;;;;;;;;7.00;96.50;;;;;;5116050;28;19970;-84
2021/12/19 08:03:16;;;;;;;;;;;7.00;96.60;;;;;;5116427;28;20295;-83
2021/12/19 08:05:41;;;;;;;;;;;7.00;96.60;;;;;;5098887;28;20386;-81
2021/12/19 08:08:10;;;;;;;;;;;7.00;96.70;;;;;;5098833;28;20025;-82
2021/12/19 08:13:02;;;;;;;;;;;7.10;96.80;;;;;;5099183;28;19924;-82
2021/12/19 08:15:27;;;;;;;;;;;7.10;96.80;;;;;;5098857;28;19919;-81
2021/12/19 08:17:53;;;;;;;;;;;7.10;96.80;;;;;;5098818;28;19938;-83
2021/12/19 08:20:19;;;;;;;;;;;7.10;96.80;;;;;;5098753;28;19916;-80
2021/12/19 08:22:46;;;;;;;;;;;7.20;96.80;;;;;;5116245;28;19997;-81
2021/12/19 08:25:11;;;;;;;;;;;7.20;96.60;;;;;;5116002;28;20287;-79
2021/12/19 08:27:37;;;;;;;;;;;7.20;96.50;;;;;;5098645;28;19919;-81
2021/12/19 08:30:08;;;;;;;;;;;7.30;96.30;;;;;;5098949;28;19955;-81
2021/12/19 08:32:33;;;;;;;;;;;7.30;96.20;;;;;;5115623;28;19915;-81
2021/12/19 08:34:59;;;;;;;;;;;7.30;96.10;;;;;;5098565;28;19916;-80
2021/12/19 08:37:24;;;;;;;;;;;7.30;96.20;;;;;;5115463;28;19922;-81
2021/12/19 08:39:50;;;;;;;;;;;7.30;96.20;;;;;;5115682;28;19941;-81
2021/12/19 08:42:15;;;;;;;;;;;7.30;96.20;;;;;;5081348;28;20287;-81
2021/12/19 08:44:41;;;;;;;;;;;7.30;96.20;;;;;;5098652;28;19916;-81
2021/12/19 08:47:07;;;;;;;;;;;7.30;96.10;;;;;;5115071;28;20368;-81
2021/12/19 08:49:34;;;;;;;;;;;7.40;96.20;;;;;;5097697;28;19915;-80
2021/12/19 08:52:01;;;;;;;;;;;7.40;96.20;;;;;;5115243;28;20379;-82
2021/12/19 08:54:26;;;;;;;;;;;7.40;96.10;;;;;;5115191;28;19969;-82
2021/12/19 08:56:52;;;;;;;;;;;7.40;96.20;;;;;;5115367;28;19958;-81
2021/12/19 08:59:18;;;;;;;;;;;7.40;96.20;;;;;;5115083;28;19972;-82
2021/12/19 09:01:43;;;;;;;;;;;7.40;96.20;;;;;;5098096;28;19916;-81
2021/12/19 09:04:09;;;;;;;;;;;7.30;96.20;;;;;;5098034;28;19915;-81
2021/12/19 09:06:35;;;;;;;;;;;7.30;96.30;;;;;;5081204;28;19920;-79
2021/12/19 09:09:02;;;;;;;;;;;7.30;96.30;;;;;;5114810;28;19916;-81
2021/12/19 09:11:28;;;;;;;;;;;7.40;96.30;;;;;;5114750;28;20011;-81
2021/12/19 09:13:54;;;;;;;;;;;7.40;96.30;;;;;;5097730;28;19955;-81
2021/12/19 09:16:19;;;;;;;;;;;7.30;96.40;;;;;;5081001;28;19951;-82
2021/12/19 09:18:45;;;;;;;;;;;7.40;96.40;;;;;;5097620;28;19915;-81
2021/12/19 09:21:10;;;;;;;;;;;7.40;96.50;;;;;;5097670;28;20007;-82
2021/12/19 09:23:36;;;;;;;;;;;7.40;96.50;;;;;;5081049;28;19922;-81
2021/12/19 09:26:02;;;;;;;;;;;7.40;96.60;;;;;;5097433;28;20390;-81
2021/12/19 09:28:27;;;;;;;;;;;7.40;96.60;;;;;;5097614;28;19971;-82
2021/12/19 09:30:53;;;;;;;;;;;7.40;96.70;;;;;;5114465;28;20002;-81
2021/12/19 09:33:18;;;;;;;;;;;7.40;96.70;;;;;;5097399;28;19915;-81
2021/12/19 09:35:44;;;;;;;;;;;7.40;96.70;;;;;;5097648;28;19919;-81
2021/12/19 09:38:09;;;;;;;;;;;7.50;96.80;;;;;;5097416;28;20274;-81
2021/12/19 09:40:38;;;;;;;;;;;7.50;96.80;;;;;;5080327;28;19916;-80
2021/12/19 09:43:05;;;;;;;;;;;7.50;96.90;;;;;;5114144;28;19920;-81
2021/12/19 09:45:32;;;;;;;;;;;7.50;96.80;;;;;;5097178;28;19923;-80
2021/12/19 09:47:58;;;;;;;;;;;7.50;96.90;;;;;;5099115;27;20935;-81
2021/12/19 09:50:23;;;;;;;;;;;7.50;96.90;;;;;;5125470;27;19919;-80
2021/12/19 09:52:52;;;;;;;;;;;7.50;97.00;;;;;;5116980;27;20397;-81
2021/12/19 09:55:19;;;;;;;;;;;7.50;97.00;;;;;;5100950;28;19919;-81
2021/12/19 09:57:45;;;;;;;;;;;7.50;97.00;;;;;;5096521;28;20360;-80
2021/12/19 10:00:11;;;;;;;;;;;7.60;96.90;;;;;;5096590;28;19923;-81
2021/12/19 10:02:37;;;;;;;;;;;7.60;96.80;;;;;;5096250;28;19919;-81
2021/12/19 10:05:15;;;;;;;;;;;7.60;96.70;;;;;;5096620;28;19967;-81
2021/12/19 10:07:48;;;;;;;;;;;7.60;96.80;;;;;;5096265;28;19923;-81
2021/12/19 10:10:23;;;;;;;;;;;7.60;96.80;;;;;;5096579;28;19916;-80
2021/12/19 10:12:51;;;;;;;;;;;7.60;96.90;;;;;;5080748;28;19916;-80
2021/12/19 10:15:19;;;;;;;;;;;7.70;96.70;;;;;;5113167;28;19922;-79
2021/12/19 10:17:46;;;;;;;;;;;7.70;96.70;;;;;;5113033;28;20352;-80
2021/12/19 10:20:14;;;;;;;;;;;7.70;96.50;;;;;;5096145;28;19916;-80
2021/12/19 10:22:41;;;;;;;;;;;7.70;96.50;;;;;;5099008;27;20318;-81
2021/12/19 10:25:09;;;;;;;;;;;7.70;96.50;;;;;;5100796;27;20446;-80
2021/12/19 10:27:39;;;;;;;;;;;7.70;96.50;;;;;;5117733;27;19938;-80
2021/12/19 10:30:17;;;;;;;;;;;7.70;96.30;;;;;;5119847;27;19927;-81
2021/12/19 10:32:50;;;;;;;;;;;7.70;96.20;;;;;;5102066;28;19998;-83
2021/12/19 10:35:24;;;;;;;;;;;7.70;96.00;;;;;;5114767;27;19923;-80
2021/12/19 10:37:50;;;;;;;;;;;7.80;95.90;;;;;;5098276;28;19930;-81
2021/12/19 10:40:16;;;;;;;;;;;7.80;95.80;;;;;;5120920;27;19916;-81
2021/12/19 10:42:46;;;;;;;;;;;7.80;95.80;;;;;;5103472;28;19919;-81
2021/12/19 10:45:29;;;;;;;;;;;7.80;95.70;;;;;;5114961;27;19916;-80
2021/12/19 10:48:07;;;;;;;;;;;7.80;95.70;;;;;;5119690;27;20083;-81
2021/12/19 10:50:43;;;;;;;;;;;7.80;95.80;;;;;;5115534;28;19915;-80
2021/12/19 10:53:09;;;;;;;;;;;7.80;95.70;;;;;;5100291;28;19924;-81
2021/12/19 10:55:35;;;;;;;;;;;7.80;95.70;;;;;;5099581;28;19923;-79
2021/12/19 10:58:01;;;;;;;;;;;7.80;95.80;;;;;;5113870;28;19923;-81
2021/12/19 11:00:27;;;;;;;;;;;7.80;95.70;;;;;;5118746;28;19924;-81
2021/12/19 11:02:53;;;;;;;;;;;7.80;95.70;;;;;;5100645;28;19923;-79
2021/12/19 11:05:39;;;;;;;;;;;7.80;95.80;;;;;;5117614;28;21112;-82
2021/12/19 11:08:06;;;;;;;;;;;7.80;95.80;;;;;;5114741;28;19961;-80
2021/12/19 11:10:32;;;;;;;;;;;7.80;95.80;;;;;;5101446;28;19920;-81
2021/12/19 11:13:05;;;;;;;;;;;7.80;95.90;;;;;;5121475;27;19976;-80
2021/12/19 11:15:31;;;;;;;;;;;7.80;95.90;;;;;;5120919;27;19923;-79
2021/12/19 11:17:56;;;;;;;;;;;7.80;95.90;;;;;;5118100;27;19946;-81
2021/12/19 11:20:22;;;;;;;;;;;7.80;96.00;;;;;;5108086;27;19924;-81
2021/12/19 11:22:47;;;;;;;;;;;7.80;96.00;;;;;;5107062;27;19926;-80
2021/12/19 11:25:13;;;;;;;;;;;7.80;96.00;;;;;;5117689;27;19915;-79
2021/12/19 11:27:38;;;;;;;;;;;7.80;96.00;;;;;;5101556;27;19919;-81
2021/12/19 11:30:04;;;;;;;;;;;7.80;96.00;;;;;;5124460;27;20388;-81
2021/12/19 11:32:48;;;;;;;;;;;7.80;95.90;;;;;;5123314;27;19923;-82
2021/12/19 11:35:18;;;;;;;;;;;7.80;96.00;;;;;;5118483;27;19926;-80
2021/12/19 11:37:49;;;;;;;;;;;7.80;96.00;;;;;;5102819;27;19916;-81
2021/12/19 11:40:16;;;;;;;;;;;7.80;96.10;;;;;;5124377;27;20343;-80
2021/12/19 11:42:42;;;;;;;;;;;7.80;96.00;;;;;;5118231;27;19927;-81
2021/12/19 11:48:08;;;;;;;;;;;7.80;95.80;;;;;;5123512;27;19928;-79
2021/12/19 11:50:53;;;;;;;;;;;7.90;95.80;;;;;;5121042;27;19941;-79
2021/12/19 11:53:21;;;;;;;;;;;7.90;95.60;;;;;;5116119;27;20309;-81
2021/12/19 11:55:48;;;;;;;;;;;7.90;95.40;;;;;;5116551;27;20329;-81
2021/12/19 11:58:13;;;;;;;;;;;7.90;95.30;;;;;;5105791;27;20282;-80
2021/12/19 12:00:40;;;;;;;;;;;7.90;95.40;;;;;;5104427;27;19915;-81
2021/12/19 12:03:12;;;;;;;;;;;7.90;95.40;;;;;;5120999;27;20367;-83
2021/12/19 12:05:38;;;;;;;;;;;8.00;95.30;;;;;;5102613;27;19988;-83
2021/12/19 12:08:07;;;;;;;;;;;7.90;95.30;;;;;;5116515;27;19924;-83
2021/12/19 12:10:52;;;;;;;;;;;8.00;95.30;;;;;;5119778;27;20374;-79
2021/12/19 12:13:21;;;;;;;;;;;8.00;95.40;;;;;;5121068;27;20033;-81
2021/12/19 12:15:50;;;;;;;;;;;8.00;95.30;;;;;;5117921;27;20390;-82
2021/12/19 12:18:29;;;;;;;;;;;8.00;95.20;;;;;;5123524;27;19916;-83
2021/12/19 12:20:55;;;;;;;;;;;8.00;95.10;;;;;;5120938;27;19919;-82
2021/12/19 12:23:25;;;;;;;;;;;8.10;94.90;;;;;;5120867;27;20357;-82
2021/12/19 12:25:51;;;;;;;;;;;8.10;94.70;;;;;;5122101;27;19924;-83
2021/12/19 12:28:18;;;;;;;;;;;8.10;94.30;;;;;;5099621;27;19916;-80
2021/12/19 12:30:45;;;;;;;;;;;8.10;94.30;;;;;;5119231;27;19919;-80
2021/12/19 12:33:14;;;;;;;;;;;8.10;93.80;;;;;;5120297;27;19921;-80
2021/12/19 12:35:41;;;;;;;;;;;8.10;93.80;;;;;;5117090;27;19998;-79
2021/12/19 12:38:07;;;;;;;;;;;8.10;93.80;;;;;;5120379;27;19915;-79
2021/12/19 12:40:45;;;;;;;;;;;8.20;93.70;;;;;;5103644;27;20325;-78
2021/12/19 12:43:11;;;;;;;;;;;8.20;93.30;;;;;;5118670;27;20418;-79
2021/12/19 12:46:07;;;;;;;;;;;8.20;93.20;;;;;;5106580;27;19962;-81
2021/12/19 12:48:40;;;;;;;;;;;8.20;93.10;;;;;;5101349;27;19949;-81
2021/12/19 12:51:18;;;;;;;;;;;8.20;92.90;;;;;;5121713;27;19915;-80
2021/12/19 12:53:46;;;;;;;;;;;8.30;92.60;;;;;;5102784;27;19951;-79
2021/12/19 12:56:30;;;;;;;;;;;8.30;92.40;;;;;;5119111;27;19915;-79
2021/12/19 12:58:56;;;;;;;;;;;8.20;92.70;;;;;;5120680;27;20002;-79
2021/12/19 13:01:22;;;;;;;;;;;8.20;92.70;;;;;;5122957;27;20014;-80
2021/12/19 13:04:00;;;;;;;;;;;8.30;92.60;;;;;;5121304;27;20022;-79
2021/12/19 13:06:44;;;;;;;;;;;8.30;92.60;;;;;;5118168;27;19934;-76
2021/12/19 13:09:30;;;;;;;;;;;8.30;92.10;;;;;;5119916;27;19923;-80
2021/12/19 13:12:08;;;;;;;;;;;8.30;91.90;;;;;;5105253;27;19966;-79
2021/12/19 13:14:35;;;;;;;;;;;8.30;91.60;;;;;;5120202;27;20382;-78
2021/12/19 13:17:02;;;;;;;;;;;8.30;91.70;;;;;;5117495;27;20008;-79
2021/12/19 13:19:38;;;;;;;;;;;8.30;92.00;;;;;;5103259;27;19993;-79
2021/12/19 13:22:24;;;;;;;;;;;8.30;92.00;;;;;;5105035;27;20275;-76
2021/12/19 13:24:51;;;;;;;;;;;8.30;91.80;;;;;;5118178;27;19922;-80
2021/12/19 13:27:16;;;;;;;;;;;8.30;91.80;;;;;;5120144;27;19972;-77
2021/12/19 13:29:42;;;;;;;;;;;8.30;91.60;;;;;;5103601;27;19915;-78
2021/12/19 13:32:35;;;;;;;;;;;8.30;91.50;;;;;;5119118;27;19919;-80
2021/12/19 13:35:01;;;;;;;;;;;8.30;91.60;;;;;;5119865;27;19923;-80
2021/12/19 13:37:32;;;;;;;;;;;8.30;91.50;;;;;;5106045;27;19915;-78
2021/12/19 13:40:07;;;;;;;;;;;8.30;91.50;;;;;;5123356;27;19924;-78
2021/12/19 13:42:37;;;;;;;;;;;8.30;91.70;;;;;;5129780;27;20733;-77
2021/12/19 13:45:22;;;;;;;;;;;8.30;91.70;;;;;;5105940;27;19923;-81
2021/12/19 13:47:47;;;;;;;;;;;8.30;92.00;;;;;;5101169;27;19924;-80
2021/12/19 13:50:13;;;;;;;;;;;8.20;92.20;;;;;;5123814;27;19916;-81
2021/12/19 13:52:39;;;;;;;;;;;8.20;92.40;;;;;;5121161;27;19919;-78
2021/12/19 13:55:12;;;;;;;;;;;8.20;92.30;;;;;;5122086;27;19915;-81
2021/12/19 13:57:37;;;;;;;;;;;8.30;92.30;;;;;;5109577;27;19920;-78
2021/12/19 14:00:04;;;;;;;;;;;8.20;92.20;;;;;;5105453;28;20428;-79
2021/12/19 14:02:37;;;;;;;;;;;8.30;92.10;;;;;;5102658;27;19923;-79
2021/12/19 14:05:03;;;;;;;;;;;8.30;92.10;;;;;;5104353;27;19923;-78
2021/12/19 14:07:29;;;;;;;;;;;8.30;92.20;;;;;;5124444;27;20038;-79
2021/12/19 14:09:57;;;;;;;;;;;8.30;92.50;;;;;;5115129;27;20423;-81
2021/12/19 14:15:18;;;;;;;;;;;8.20;92.70;;;;;;5082528;27;19919;-83
2021/12/19 14:17:44;;;;;;;;;;;8.10;92.90;;;;;;5115745;27;19923;-82
2021/12/19 14:20:09;;;;;;;;;;;8.10;93.00;;;;;;5102714;27;19964;-79
2021/12/19 14:22:35;;;;;;;;;;;8.10;93.10;;;;;;5100680;27;20329;-82
2021/12/19 14:25:02;;;;;;;;;;;8.10;93.10;;;;;;5098503;27;19987;-80
2021/12/19 14:27:41;;;;;;;;;;;8.10;93.10;;;;;;5115561;27;19961;-80
2021/12/19 14:30:06;;;;;;;;;;;8.10;93.30;;;;;;5126679;27;19922;-79
2021/12/19 14:32:33;;;;;;;;;;;8.00;93.30;;;;;;5101805;28;19920;-79
2021/12/19 14:35:01;;;;;;;;;;;8.00;93.30;;;;;;5099715;27;20304;-79
2021/12/19 14:37:28;;;;;;;;;;;8.10;93.30;;;;;;5112939;27;19946;-79
2021/12/19 14:40:15;;;;;;;;;;;8.00;93.40;;;;;;5119192;27;19923;-82
2021/12/19 14:42:42;;;;;;;;;;;8.00;93.50;;;;;;5115513;28;19919;-78
2021/12/19 14:45:10;;;;;;;;;;;8.00;93.70;;;;;;5103215;28;19921;-79
2021/12/19 14:47:38;;;;;;;;;;;8.00;93.60;;;;;;5101942;27;20339;-79
2021/12/19 14:50:11;;;;;;;;;;;8.00;93.70;;;;;;5118985;27;19970;-79
2021/12/19 14:52:37;;;;;;;;;;;8.00;93.70;;;;;;5123788;27;19915;-83
2021/12/19 14:55:13;;;;;;;;;;;8.00;93.70;;;;;;5119713;28;19917;-82
2021/12/19 14:57:41;;;;;;;;;;;8.00;93.70;;;;;;5105726;28;19915;-79
2021/12/19 15:00:07;;;;;;;;;;;8.00;93.60;;;;;;5102946;28;19916;-82
2021/12/19 15:02:33;;;;;;;;;;;8.00;93.80;;;;;;5122907;28;20302;-81
2021/12/19 15:04:58;;;;;;;;;;;8.00;93.90;;;;;;5120917;28;19923;-79
2021/12/19 15:07:26;;;;;;;;;;;8.00;94.00;;;;;;5103505;28;20374;-82
2021/12/19 15:09:51;;;;;;;;;;;8.00;94.10;;;;;;5117708;28;19998;-81
2021/12/19 15:12:17;;;;;;;;;;;8.00;94.00;;;;;;5117483;28;20007;-81
2021/12/19 15:14:43;;;;;;;;;;;8.00;94.00;;;;;;5084955;28;20008;-81
2021/12/19 15:17:09;;;;;;;;;;;8.00;94.00;;;;;;5120058;28;19916;-83
2021/12/19 15:19:34;;;;;;;;;;;8.00;94.00;;;;;;5105274;28;19923;-81
2021/12/19 15:22:00;;;;;;;;;;;8.10;93.80;;;;;;5118393;28;19919;-78
2021/12/19 15:24:25;;;;;;;;;;;8.10;93.50;;;;;;5114626;28;19919;-80
2021/12/19 15:26:51;;;;;;;;;;;8.10;93.50;;;;;;5100838;28;19927;-80
2021/12/19 15:29:17;;;;;;;;;;;8.10;93.70;;;;;;5115524;28;19922;-78
2021/12/19 15:31:42;;;;;;;;;;;8.10;93.50;;;;;;5099701;28;19965;-81
2021/12/19 15:34:08;;;;;;;;;;;8.10;93.50;;;;;;5100544;28;19999;-77
2021/12/19 15:36:34;;;;;;;;;;;8.10;93.50;;;;;;5118185;28;19935;-79
2021/12/19 15:39:01;;;;;;;;;;;8.10;93.60;;;;;;5116080;28;19923;-79
2021/12/19 15:41:26;;;;;;;;;;;8.10;93.70;;;;;;5120322;28;19919;-81
2021/12/19 15:43:52;;;;;;;;;;;8.10;93.80;;;;;;5116906;28;19935;-83
2021/12/19 15:46:21;;;;;;;;;;;8.10;94.10;;;;;;5102578;28;19980;-80